Time;durP1;ratioP1;P1;durP2;ratioP2;P2;SDS_P1;SDS_P2;PMS_P1;PMS_P2;Temp;Humidity;BMP_temperature;BMP_pressure;BME280_temperature;BME280_humidity;BME280_pressure;Samples;Min_cycle;Max_cycle;Signal;HPM_P1;HPM_P2
2021/01/24 03:12:00;;;;;;;0.90;0.50;;;3.50;99.90;;;;;;5835990;24;20208;-76
2021/01/24 03:20:07;;;;;;;0.93;0.50;;;3.40;99.90;;;;;;5839168;24;20656;-76
2021/01/24 03:34:53;;;;;;;;;;;;;;;;;;;;;
2021/01/24 04:30:23;;;;;;;1.48;0.88;;;3.10;99.90;;;;;;5803759;24;20184;-74
2021/01/24 04:38:19;;;;;;;1.30;0.90;;;3.10;99.90;;;;;;5877657;24;20199;-74
2021/01/24 04:42:27;;;;;;;;;;;;;;;;;;;;;
2021/01/24 04:45:42;;;;;;;1.80;0.90;;;3.10;99.90;;;;;;5948295;24;20236;-75
2021/01/24 04:49:27;;;;;;;1.70;1.10;;;3.20;99.90;;;;;;5871162;24;20255;-74
2021/01/24 04:52:54;;;;;;;1.50;0.90;;;3.20;99.90;;;;;;5870951;24;20172;-74
2021/01/24 04:56:09;;;;;;;2.00;1.05;;;3.20;99.90;;;;;;6042244;23;20630;-83
2021/01/24 04:58:37;;;;;;;1.40;1.08;;;3.20;99.90;;;;;;6185408;23;20149;-83
2021/01/24 05:01:03;;;;;;;1.75;1.50;;;3.20;99.90;;;;;;6186016;23;20153;-83
2021/01/24 05:03:29;;;;;;;1.95;1.40;;;3.20;99.90;;;;;;6218039;23;20443;-83
2021/01/24 05:05:55;;;;;;;2.60;1.98;;;3.20;99.90;;;;;;6185802;23;20173;-83
2021/01/24 05:08:22;;;;;;;2.10;1.53;;;3.20;99.90;;;;;;6211904;23;20156;-83
2021/01/24 05:10:54;;;;;;;1.80;1.40;;;3.20;99.90;;;;;;6212003;23;20582;-82
2021/01/24 05:13:26;;;;;;;2.60;1.80;;;3.20;99.90;;;;;;6186120;23;20140;-82
2021/01/24 05:15:56;;;;;;;2.75;2.05;;;3.20;99.90;;;;;;6185916;23;20793;-82
2021/01/24 05:18:22;;;;;;;3.00;2.25;;;3.20;99.90;;;;;;6211622;23;20156;-83
2021/01/24 05:20:50;;;;;;;2.83;2.38;;;3.20;99.90;;;;;;6212164;23;20141;-83
2021/01/24 05:23:22;;;;;;;4.13;3.20;;;3.20;99.90;;;;;;6212601;23;20149;-83
2021/01/24 05:25:49;;;;;;;4.75;3.38;;;3.30;99.90;;;;;;6185900;23;20191;-82
2021/01/24 05:28:26;;;;;;;3.50;3.17;;;3.30;99.90;;;;;;6211888;23;20610;-84
2021/01/24 05:31:05;;;;;;;4.32;3.85;;;3.30;99.90;;;;;;6212264;23;20200;-83
2021/01/24 05:33:31;;;;;;;4.88;4.05;;;3.30;99.90;;;;;;6185645;23;20136;-82
2021/01/24 05:35:57;;;;;;;4.73;3.50;;;3.30;99.90;;;;;;6212592;23;20173;-82
2021/01/24 05:38:30;;;;;;;5.17;4.50;;;3.30;99.90;;;;;;6212178;23;20208;-82
2021/01/24 05:40:59;;;;;;;4.10;3.38;;;3.30;99.90;;;;;;6190984;23;21414;-83
2021/01/24 05:43:27;;;;;;;3.33;2.80;;;3.30;99.90;;;;;;6212238;23;20155;-82
2021/01/24 05:45:53;;;;;;;2.97;2.60;;;3.30;99.90;;;;;;6215420;23;20176;-82
2021/01/24 05:48:20;;;;;;;3.72;3.33;;;3.30;99.90;;;;;;6212301;23;20149;-84
2021/01/24 05:50:47;;;;;;;4.65;3.42;;;3.30;99.90;;;;;;6215087;23;20172;-83
2021/01/24 05:53:14;;;;;;;5.63;4.93;;;3.30;99.90;;;;;;6214623;23;20471;-83
2021/01/24 05:55:40;;;;;;;5.00;3.65;;;3.30;99.90;;;;;;6212829;23;20172;-82
2021/01/24 05:58:21;;;;;;;3.28;2.83;;;3.30;99.90;;;;;;6211397;23;20468;-82
2021/01/24 06:00:49;;;;;;;3.33;2.42;;;3.30;99.90;;;;;;6211233;23;20153;-82
2021/01/24 06:03:16;;;;;;;3.55;3.25;;;3.30;99.90;;;;;;6188347;23;20149;-83
2021/01/24 06:05:42;;;;;;;4.35;3.92;;;3.30;99.90;;;;;;6216492;23;20480;-83
2021/01/24 06:08:10;;;;;;;3.83;3.42;;;3.30;99.90;;;;;;6214849;23;20240;-84
2021/01/24 06:10:36;;;;;;;5.72;4.63;;;3.30;99.90;;;;;;6212683;23;20180;-83
2021/01/24 06:13:04;;;;;;;5.88;5.00;;;3.30;99.90;;;;;;6212778;23;20153;-81
2021/01/24 06:15:31;;;;;;;6.65;5.75;;;3.30;99.90;;;;;;6185597;23;20180;-82
2021/01/24 06:17:59;;;;;;;5.38;4.85;;;3.30;99.90;;;;;;6217495;23;20201;-82
2021/01/24 06:20:43;;;;;;;6.78;5.20;;;3.40;99.90;;;;;;6185647;23;20211;-85
2021/01/24 06:23:17;;;;;;;8.93;6.22;;;3.40;99.90;;;;;;6185672;23;20221;-82
2021/01/24 06:25:45;;;;;;;7.10;5.35;;;3.30;99.90;;;;;;6184122;23;20164;-82
2021/01/24 06:28:22;;;;;;;8.52;6.75;;;3.40;99.90;;;;;;6183718;23;20253;-81
2021/01/24 06:30:49;;;;;;;7.45;5.85;;;3.40;99.90;;;;;;6183741;23;20235;-81
2021/01/24 06:33:20;;;;;;;7.47;6.25;;;3.40;99.90;;;;;;6211657;23;20152;-82
2021/01/24 06:36:03;;;;;;;7.50;6.53;;;3.40;99.90;;;;;;6211685;23;20219;-81
2021/01/24 06:38:40;;;;;;;7.35;6.63;;;3.40;99.90;;;;;;6184182;23;20270;-81
2021/01/24 06:41:08;;;;;;;10.02;7.15;;;3.40;99.90;;;;;;6211586;23;20137;-81
2021/01/24 06:43:44;;;;;;;9.57;7.68;;;3.40;99.90;;;;;;6184137;23;20155;-81
2021/01/24 06:46:19;;;;;;;11.05;7.75;;;3.40;99.90;;;;;;6160245;23;20164;-81
2021/01/24 06:48:49;;;;;;;10.13;7.47;;;3.40;99.90;;;;;;6211519;23;20210;-81
2021/01/24 06:51:36;;;;;;;7.38;6.05;;;3.40;99.90;;;;;;6185048;23;20157;-82
2021/01/24 06:54:07;;;;;;;8.60;6.95;;;3.40;99.90;;;;;;6213014;23;20483;-81
2021/01/24 06:56:43;;;;;;;12.80;6.88;;;3.40;99.90;;;;;;6100563;23;20262;-81
2021/01/24 06:59:10;;;;;;;9.65;6.20;;;3.40;99.90;;;;;;6060717;23;20133;-81
2021/01/24 07:01:37;;;;;;;10.20;7.18;;;3.40;99.90;;;;;;6061182;23;20173;-81
2021/01/24 07:04:24;;;;;;;9.15;6.50;;;3.40;99.90;;;;;;6058886;23;20227;-81
2021/01/24 07:06:58;;;;;;;9.45;6.93;;;3.40;99.90;;;;;;6035071;23;20207;-81
2021/01/24 07:09:24;;;;;;;9.45;6.28;;;3.40;99.90;;;;;;6060667;23;20156;-81
2021/01/24 07:11:50;;;;;;;10.07;7.80;;;3.40;99.90;;;;;;6059225;23;20169;-81
2021/01/24 07:14:31;;;;;;;11.43;6.30;;;3.40;99.90;;;;;;6058624;23;20184;-81
2021/01/24 07:17:07;;;;;;;9.27;6.70;;;3.40;99.90;;;;;;6057749;23;20227;-81
2021/01/24 07:19:39;;;;;;;7.85;6.00;;;3.40;99.90;;;;;;6060552;23;20587;-81
2021/01/24 07:22:06;;;;;;;9.23;6.63;;;3.40;99.90;;;;;;6035938;23;20156;-81
2021/01/24 07:24:32;;;;;;;7.40;5.38;;;3.40;99.90;;;;;;6060289;23;20156;-81
2021/01/24 07:26:58;;;;;;;7.57;5.27;;;3.40;99.90;;;;;;6060022;23;20176;-81
2021/01/24 07:29:25;;;;;;;9.50;7.78;;;3.40;99.90;;;;;;6083002;23;20627;-81
2021/01/24 07:31:52;;;;;;;6.93;5.18;;;3.40;99.90;;;;;;6061304;23;20177;-81
2021/01/24 07:34:22;;;;;;;7.88;6.05;;;3.50;99.90;;;;;;6060672;23;20594;-81
2021/01/24 07:36:49;;;;;;;9.65;6.93;;;3.40;99.90;;;;;;6036277;23;20436;-81
2021/01/24 07:39:15;;;;;;;6.88;5.35;;;3.50;99.90;;;;;;6060440;23;20153;-81
2021/01/24 07:41:42;;;;;;;9.20;6.95;;;3.50;99.90;;;;;;6034484;23;20156;-80
2021/01/24 07:44:08;;;;;;;11.85;6.80;;;3.50;99.90;;;;;;6035532;23;20493;-80
2021/01/24 07:46:34;;;;;;;8.63;7.13;;;3.50;99.90;;;;;;6060507;23;20172;-82
2021/01/24 07:49:00;;;;;;;10.07;7.27;;;3.50;99.90;;;;;;6058740;23;20860;-81
2021/01/24 07:51:28;;;;;;;12.13;8.23;;;3.50;99.90;;;;;;6060090;23;20622;-82
2021/01/24 07:53:54;;;;;;;10.20;7.77;;;3.50;99.90;;;;;;6059453;23;20149;-81
2021/01/24 07:56:20;;;;;;;12.75;8.65;;;3.50;99.90;;;;;;6148525;23;20775;-82
2021/01/24 07:58:46;;;;;;;12.13;8.80;;;3.50;99.90;;;;;;6212305;23;20607;-82
2021/01/24 08:01:14;;;;;;;14.00;10.50;;;3.60;99.90;;;;;;6186346;23;20532;-82
2021/01/24 08:03:42;;;;;;;12.05;9.15;;;3.60;99.90;;;;;;6186309;23;20175;-82
2021/01/24 08:06:09;;;;;;;13.60;9.63;;;3.60;99.90;;;;;;6212953;23;20611;-82
2021/01/24 08:08:46;;;;;;;13.18;9.35;;;3.60;99.90;;;;;;6212259;23;20137;-82
2021/01/24 08:11:13;;;;;;;14.00;10.27;;;3.60;99.90;;;;;;6189021;23;20164;-82
2021/01/24 08:13:41;;;;;;;17.40;10.88;;;3.70;99.90;;;;;;6212647;23;20149;-81
2021/01/24 08:16:15;;;;;;;15.55;10.43;;;3.70;99.90;;;;;;6212627;23;20165;-82
2021/01/24 08:18:44;;;;;;;14.02;10.55;;;3.70;99.90;;;;;;6212473;23;20141;-82
2021/01/24 08:21:10;;;;;;;12.93;10.55;;;3.70;99.90;;;;;;6161150;23;20243;-82
2021/01/24 08:23:38;;;;;;;10.70;9.47;;;3.70;99.90;;;;;;6186318;23;20177;-82
2021/01/24 08:26:06;;;;;;;11.30;9.75;;;3.80;99.90;;;;;;6212434;23;20950;-82
2021/01/24 08:28:32;;;;;;;16.20;11.38;;;3.80;99.90;;;;;;6185575;23;20207;-81
2021/01/24 08:31:00;;;;;;;13.10;10.23;;;3.90;99.90;;;;;;6212713;23;20570;-82
2021/01/24 08:33:26;;;;;;;16.02;11.27;;;3.90;99.90;;;;;;6212582;23;20141;-81
2021/01/24 08:35:52;;;;;;;13.38;10.07;;;3.90;99.90;;;;;;6212557;23;20168;-82
2021/01/24 08:38:20;;;;;;;15.57;11.60;;;4.00;99.90;;;;;;6212029;23;20134;-82
2021/01/24 08:40:48;;;;;;;15.15;10.57;;;4.00;99.90;;;;;;6159844;23;20153;-82
2021/01/24 08:43:17;;;;;;;13.93;10.75;;;4.10;99.90;;;;;;6212272;23;20152;-82
2021/01/24 08:45:43;;;;;;;16.13;12.27;;;4.10;99.90;;;;;;6185712;23;20165;-82
2021/01/24 08:48:14;;;;;;;12.90;11.47;;;4.20;99.90;;;;;;6211881;23;20148;-82
2021/01/24 08:50:40;;;;;;;9.75;8.75;;;4.20;99.90;;;;;;6217125;23;20161;-81
2021/01/24 08:53:07;;;;;;;16.95;14.40;;;4.20;99.90;;;;;;6210820;23;20651;-80
2021/01/24 08:55:49;;;;;;;15.20;12.30;;;4.10;99.90;;;;;;6148824;23;20530;-80
2021/01/24 08:58:25;;;;;;;15.52;11.82;;;4.30;99.90;;;;;;6060839;23;20200;-81
2021/01/24 09:01:09;;;;;;;12.02;9.35;;;4.30;99.90;;;;;;6061223;23;20223;-81
2021/01/24 09:03:35;;;;;;;11.80;9.85;;;4.30;99.90;;;;;;6062156;23;20488;-81
2021/01/24 09:06:18;;;;;;;11.77;8.80;;;4.40;99.90;;;;;;6061017;23;20169;-84
2021/01/24 09:08:49;;;;;;;10.27;8.15;;;4.40;99.90;;;;;;6059009;23;20560;-84
2021/01/24 09:11:15;;;;;;;11.05;8.07;;;4.50;99.90;;;;;;6064325;23;20251;-81
2021/01/24 09:13:40;;;;;;;9.15;7.68;;;4.50;99.90;;;;;;6060470;23;20145;-81
2021/01/24 09:16:06;;;;;;;7.33;6.63;;;4.50;99.90;;;;;;6034246;23;20183;-81
2021/01/24 09:18:33;;;;;;;7.55;6.85;;;4.50;99.90;;;;;;6060344;23;20509;-81
2021/01/24 09:21:04;;;;;;;12.55;7.40;;;4.50;99.90;;;;;;6061107;23;20156;-81
2021/01/24 09:23:30;;;;;;;8.07;6.85;;;4.60;99.90;;;;;;6061687;23;20156;-81
2021/01/24 09:25:57;;;;;;;6.70;5.45;;;4.60;99.90;;;;;;6060292;23;20183;-80
2021/01/24 09:28:24;;;;;;;7.65;6.05;;;4.60;99.90;;;;;;6069246;23;20152;-80
2021/01/24 09:30:50;;;;;;;7.43;6.43;;;4.60;99.90;;;;;;6060665;23;20207;-81
2021/01/24 09:33:16;;;;;;;7.15;5.78;;;4.60;99.90;;;;;;6060050;23;20594;-81
2021/01/24 09:35:42;;;;;;;8.63;6.90;;;4.60;99.90;;;;;;6058773;23;20191;-81
2021/01/24 09:38:08;;;;;;;8.83;6.53;;;4.60;99.90;;;;;;6059778;23;20180;-81
2021/01/24 09:40:33;;;;;;;8.48;6.97;;;4.70;99.90;;;;;;6061204;23;20632;-81
2021/01/24 09:42:59;;;;;;;7.73;5.80;;;4.60;99.90;;;;;;6035269;23;20160;-81
2021/01/24 09:45:25;;;;;;;7.90;6.83;;;4.70;99.90;;;;;;6081322;23;20691;-80
2021/01/24 09:47:51;;;;;;;9.03;6.03;;;4.70;99.90;;;;;;6059949;23;20144;-80
2021/01/24 09:50:22;;;;;;;6.90;5.80;;;4.70;99.90;;;;;;6060923;23;20596;-82
2021/01/24 09:52:48;;;;;;;9.65;6.30;;;4.70;99.90;;;;;;6059073;23;20517;-80
2021/01/24 09:55:14;;;;;;;8.47;6.10;;;4.70;99.90;;;;;;6078959;23;20179;-82
2021/01/24 09:57:39;;;;;;;7.03;5.30;;;4.70;99.90;;;;;;6212744;23;20493;-82
2021/01/24 10:00:06;;;;;;;8.93;6.10;;;4.70;99.90;;;;;;6213018;23;20148;-81
2021/01/24 10:02:37;;;;;;;8.70;6.10;;;4.70;99.90;;;;;;6212305;23;20151;-81
2021/01/24 10:05:04;;;;;;;8.07;7.07;;;4.70;99.90;;;;;;6216115;23;20595;-80
2021/01/24 10:07:30;;;;;;;13.00;8.57;;;4.80;99.90;;;;;;6184071;23;21140;-80
2021/01/24 10:09:55;;;;;;;11.50;8.67;;;4.70;99.90;;;;;;6160315;23;20173;-80
2021/01/24 10:12:21;;;;;;;7.60;6.63;;;4.80;99.90;;;;;;6211001;23;20149;-81
2021/01/24 10:14:47;;;;;;;15.40;9.77;;;4.80;99.90;;;;;;6212072;23;20520;-83
2021/01/24 10:17:12;;;;;;;13.00;10.43;;;4.80;99.90;;;;;;6159134;23;20168;-82
2021/01/24 10:19:39;;;;;;;12.30;9.00;;;4.80;99.90;;;;;;6213778;23;20546;-82
2021/01/24 10:22:06;;;;;;;10.52;8.60;;;4.80;99.90;;;;;;6210442;23;20145;-82
2021/01/24 10:24:32;;;;;;;13.80;10.27;;;4.90;99.90;;;;;;6184600;23;20219;-83
2021/01/24 10:26:59;;;;;;;11.73;8.70;;;4.90;99.90;;;;;;6211029;23;20248;-81
2021/01/24 10:29:27;;;;;;;15.27;9.73;;;5.00;99.90;;;;;;6211476;23;20156;-85
2021/01/24 10:31:53;;;;;;;12.30;10.15;;;5.00;99.90;;;;;;6162894;23;20165;-84
2021/01/24 10:34:19;;;;;;;19.10;14.38;;;5.00;99.90;;;;;;6186559;23;20151;-83
2021/01/24 10:36:45;;;;;;;18.70;15.30;;;5.00;99.90;;;;;;6185462;23;20206;-82
2021/01/24 10:39:11;;;;;;;16.40;12.10;;;5.00;99.90;;;;;;6216229;23;20137;-80
2021/01/24 10:53:49;;;;;;;13.50;11.02;;;5.20;99.90;;;;;;6167399;23;20252;-86
2021/01/24 10:56:16;;;;;;;15.67;10.90;;;5.30;99.90;;;;;;6183761;23;20170;-82
2021/01/24 10:58:42;;;;;;;15.07;10.40;;;5.30;99.90;;;;;;6183090;23;20126;-84
2021/01/24 11:50:41;;;;;;;14.15;11.73;;;5.80;99.90;;;;;;6098155;23;20360;-76
2021/01/24 11:53:07;;;;;;;19.92;14.05;;;5.80;99.90;;;;;;6181472;23;20160;-75
2021/01/24 11:55:33;;;;;;;15.43;12.20;;;5.80;99.90;;;;;;6183102;23;20142;-76
2021/01/24 11:57:59;;;;;;;12.30;10.97;;;5.80;99.90;;;;;;6155496;23;20636;-75
2021/01/24 12:00:32;;;;;;;15.10;12.30;;;5.80;99.90;;;;;;6132410;23;20216;-78
2021/01/24 12:03:59;;;;;;;12.27;10.43;;;5.90;99.90;;;;;;6166435;23;20154;-78
2021/01/24 12:06:31;;;;;;;12.85;10.63;;;6.10;99.90;;;;;;6150555;23;20161;-76
2021/01/24 12:08:56;;;;;;;12.77;10.27;;;6.30;99.90;;;;;;6156554;23;20236;-76
2021/01/24 12:11:22;;;;;;;11.97;10.47;;;6.30;99.90;;;;;;6182536;23;20561;-77
2021/01/24 12:13:48;;;;;;;14.00;12.50;;;6.40;99.90;;;;;;6182943;23;20534;-77
2021/01/24 12:16:14;;;;;;;13.50;10.97;;;6.40;99.90;;;;;;6182685;23;20644;-77
2021/01/24 12:18:40;;;;;;;13.20;10.87;;;6.40;99.90;;;;;;6131371;23;20659;-77
2021/01/24 12:21:06;;;;;;;15.67;12.07;;;6.40;99.90;;;;;;6155770;23;20607;-78
2021/01/24 12:23:31;;;;;;;17.70;12.27;;;6.40;99.90;;;;;;6182996;23;20150;-78
2021/01/24 12:25:57;;;;;;;12.77;10.87;;;6.40;99.90;;;;;;6156342;23;20528;-78
2021/01/24 12:28:23;;;;;;;14.33;11.20;;;6.40;99.90;;;;;;6159770;23;20569;-79
2021/01/24 12:30:49;;;;;;;13.40;10.80;;;6.40;99.90;;;;;;6183269;23;20889;-79
2021/01/24 12:33:15;;;;;;;11.40;9.57;;;6.30;99.90;;;;;;6186898;23;20526;-79
2021/01/24 12:35:42;;;;;;;12.63;10.13;;;6.30;99.90;;;;;;6156272;23;20537;-78
2021/01/24 12:38:08;;;;;;;15.48;9.70;;;6.20;99.90;;;;;;6182022;23;20849;-78
2021/01/24 12:40:34;;;;;;;15.07;10.13;;;6.20;99.90;;;;;;6155959;23;20157;-78
2021/01/24 12:43:00;;;;;;;12.07;9.90;;;6.10;99.90;;;;;;6182484;23;20161;-78
2021/01/24 12:45:27;;;;;;;13.45;11.40;;;6.00;99.90;;;;;;6182320;23;20161;-77
2021/01/24 12:47:56;;;;;;;13.00;10.20;;;6.00;99.90;;;;;;6155927;23;20146;-77
2021/01/24 12:50:22;;;;;;;11.98;8.93;;;6.00;99.90;;;;;;6131302;23;20589;-77
2021/01/24 12:52:48;;;;;;;11.00;8.30;;;6.00;99.90;;;;;;6182155;23;20168;-76
2021/01/24 12:55:14;;;;;;;10.50;8.43;;;5.90;99.90;;;;;;6156118;23;20522;-76
2021/01/24 12:57:40;;;;;;;8.55;7.35;;;6.00;99.90;;;;;;6155280;23;20798;-76
2021/01/24 13:00:08;;;;;;;13.13;8.95;;;6.00;99.90;;;;;;6182014;23;20196;-76
2021/01/24 13:02:35;;;;;;;14.32;7.60;;;6.00;99.90;;;;;;6156139;23;20226;-76
2021/01/24 13:05:01;;;;;;;11.07;7.22;;;6.00;99.90;;;;;;6132281;23;20161;-76
2021/01/24 13:07:28;;;;;;;8.85;6.85;;;6.10;99.90;;;;;;6155169;23;20223;-77
2021/01/24 13:09:54;;;;;;;9.07;7.10;;;6.10;99.90;;;;;;6155635;23;20611;-76
2021/01/24 13:12:20;;;;;;;7.73;6.90;;;6.00;99.90;;;;;;6130559;23;20597;-76
2021/01/24 13:14:45;;;;;;;11.93;7.20;;;6.00;99.90;;;;;;6182163;23;20544;-76
2021/01/24 13:17:17;;;;;;;8.27;7.33;;;6.00;99.90;;;;;;6181133;23;20528;-77
2021/01/24 13:19:50;;;;;;;14.32;7.70;;;6.00;99.90;;;;;;6156820;23;20596;-78
2021/01/24 13:45:18;;;;;;;9.00;5.55;;;6.50;99.90;;;;;;6181582;23;20575;-76
2021/01/24 13:47:44;;;;;;;8.35;6.10;;;6.50;99.90;;;;;;6156197;23;20638;-76
2021/01/24 13:50:10;;;;;;;8.57;6.70;;;6.50;99.90;;;;;;6133975;23;20505;-78
2021/01/24 13:52:36;;;;;;;12.30;8.20;;;6.60;99.90;;;;;;6186674;23;20153;-77
2021/01/24 13:55:04;;;;;;;9.75;7.53;;;6.60;99.90;;;;;;6189018;23;20138;-78
2021/01/24 14:11:45;;;;;;;12.55;5.95;;;6.10;99.90;;;;;;6173480;23;20601;-75
2021/01/24 14:14:11;;;;;;;9.07;5.70;;;6.00;99.90;;;;;;6181862;23;20142;-76
2021/01/24 14:16:36;;;;;;;6.67;5.23;;;6.00;99.90;;;;;;6181925;23;21187;-76
2021/01/24 14:19:02;;;;;;;8.57;5.13;;;6.00;99.90;;;;;;6182014;23;20216;-76
2021/01/24 14:21:30;;;;;;;6.97;4.95;;;6.00;99.90;;;;;;6155646;23;20245;-76
2021/01/24 14:23:55;;;;;;;7.07;5.40;;;6.00;99.90;;;;;;6155328;23;20177;-76
2021/01/24 14:26:22;;;;;;;8.03;5.10;;;6.00;99.90;;;;;;6155208;23;20161;-77
2021/01/24 14:28:48;;;;;;;8.95;5.82;;;6.10;99.90;;;;;;6105553;23;20252;-77
2021/01/24 14:31:14;;;;;;;7.93;5.87;;;6.10;99.90;;;;;;6154861;23;20256;-77
2021/01/24 14:45:54;;;;;;;9.25;6.88;;;5.90;99.90;;;;;;6167487;23;20272;-75
2021/01/24 14:48:24;;;;;;;7.07;5.95;;;5.80;99.90;;;;;;6130042;23;20232;-77
2021/01/24 14:50:50;;;;;;;8.50;6.45;;;5.70;99.90;;;;;;6180713;23;20186;-78
2021/01/24 14:53:16;;;;;;;11.23;8.35;;;5.70;99.90;;;;;;6154215;23;20741;-77
2021/01/24 14:55:42;;;;;;;10.00;7.72;;;5.50;99.90;;;;;;6181695;23;20156;-77
2021/01/24 14:58:07;;;;;;;9.87;7.50;;;5.60;99.90;;;;;;6180857;23;20213;-77
2021/01/24 15:00:33;;;;;;;7.80;6.07;;;5.60;99.90;;;;;;6154927;23;20596;-77
2021/01/24 15:02:59;;;;;;;7.07;6.38;;;5.60;99.90;;;;;;6131867;23;20158;-77
2021/01/24 15:05:25;;;;;;;5.43;4.90;;;5.60;99.90;;;;;;6154394;23;20134;-77
2021/01/24 15:07:51;;;;;;;7.67;5.80;;;5.60;99.90;;;;;;6180754;23;20335;-77
2021/01/24 15:10:17;;;;;;;8.00;5.73;;;5.70;99.90;;;;;;6180301;23;20178;-77
2021/01/24 15:12:42;;;;;;;8.20;6.63;;;5.70;99.90;;;;;;6154412;23;20149;-77
2021/01/24 15:15:09;;;;;;;6.47;5.60;;;5.60;99.90;;;;;;6155457;23;20153;-77
2021/01/24 15:17:37;;;;;;;6.30;5.40;;;5.60;99.90;;;;;;6182551;23;20149;-77
2021/01/24 15:20:05;;;;;;;7.40;5.68;;;5.60;99.90;;;;;;6156572;23;20284;-77
2021/01/24 15:22:31;;;;;;;7.43;5.68;;;5.60;99.90;;;;;;6181445;23;20156;-77
2021/01/24 15:24:57;;;;;;;7.83;6.00;;;5.50;99.90;;;;;;6182733;23;20176;-77
2021/01/24 15:27:24;;;;;;;6.20;5.60;;;5.50;99.90;;;;;;6182539;23;20638;-77
2021/01/24 15:29:50;;;;;;;13.73;7.78;;;5.50;99.90;;;;;;6182733;23;20166;-77
2021/01/24 15:32:17;;;;;;;12.43;9.15;;;5.50;99.90;;;;;;6182612;23;20560;-77
2021/01/24 15:34:44;;;;;;;11.35;9.35;;;5.50;99.90;;;;;;6156762;23;20479;-77
2021/01/24 15:37:10;;;;;;;9.50;7.43;;;5.40;99.90;;;;;;6182981;23;20141;-78
2021/01/24 15:39:36;;;;;;;10.02;7.57;;;5.40;99.90;;;;;;6180535;23;20168;-77
2021/01/24 15:42:02;;;;;;;9.20;6.68;;;5.40;99.90;;;;;;6155871;23;20157;-77
2021/01/24 15:44:27;;;;;;;10.90;8.20;;;5.30;99.90;;;;;;6182343;23;20150;-77
2021/01/24 15:46:53;;;;;;;10.60;8.13;;;5.30;99.90;;;;;;6182593;23;20599;-77
2021/01/24 15:49:19;;;;;;;8.63;7.00;;;5.30;99.90;;;;;;6131177;23;20173;-77
2021/01/24 15:51:45;;;;;;;7.60;6.30;;;5.20;99.90;;;;;;6131529;23;20212;-77
2021/01/24 15:54:11;;;;;;;6.73;5.13;;;5.20;99.90;;;;;;6182659;23;20150;-77
2021/01/24 15:56:37;;;;;;;5.20;4.70;;;5.10;99.90;;;;;;6156064;23;20537;-77
2021/01/24 15:59:04;;;;;;;5.55;4.97;;;5.10;99.90;;;;;;6130943;23;20201;-78
2021/01/24 16:01:30;;;;;;;5.40;4.20;;;5.00;99.90;;;;;;6155237;23;20662;-77
2021/01/24 16:03:56;;;;;;;5.60;4.43;;;5.00;99.90;;;;;;6132757;23;20200;-77
2021/01/24 16:06:21;;;;;;;5.90;4.30;;;4.90;99.90;;;;;;6156775;23;20162;-77
2021/01/24 16:08:47;;;;;;;5.70;4.27;;;4.90;99.90;;;;;;6155640;23;20209;-77
2021/01/24 16:11:13;;;;;;;6.47;4.40;;;4.90;99.90;;;;;;6155147;23;20568;-77
2021/01/24 16:13:39;;;;;;;4.63;4.23;;;4.80;99.90;;;;;;6182715;23;20513;-77
2021/01/24 16:16:05;;;;;;;5.67;4.30;;;4.80;99.90;;;;;;6131691;23;20552;-77
2021/01/24 16:18:31;;;;;;;6.32;4.13;;;4.70;99.90;;;;;;6182287;23;20168;-77
2021/01/24 16:20:57;;;;;;;5.90;4.40;;;4.70;99.90;;;;;;6181860;23;20261;-77
2021/01/24 16:23:23;;;;;;;6.28;4.50;;;4.70;99.90;;;;;;6182818;23;20538;-77
2021/01/24 16:25:49;;;;;;;5.10;4.00;;;4.70;99.90;;;;;;6182359;23;20175;-78
2021/01/24 16:28:15;;;;;;;7.18;6.47;;;4.60;99.90;;;;;;6181225;23;21161;-77
2021/01/24 16:30:41;;;;;;;7.73;5.40;;;4.50;99.90;;;;;;6155882;23;20181;-77
2021/01/24 16:33:09;;;;;;;5.75;4.47;;;4.50;99.90;;;;;;6158551;23;20596;-78
2021/01/24 16:35:36;;;;;;;4.20;3.38;;;4.50;99.90;;;;;;6157578;23;20079;-77
2021/01/24 16:38:02;;;;;;;7.47;4.50;;;4.50;99.90;;;;;;6182800;23;20145;-77
2021/01/24 16:40:30;;;;;;;7.20;4.40;;;4.50;99.90;;;;;;6184198;23;20169;-78
2021/01/24 16:42:56;;;;;;;4.70;3.55;;;4.50;99.90;;;;;;6107597;23;20161;-77
2021/01/24 16:45:21;;;;;;;4.23;3.83;;;4.50;99.90;;;;;;6132418;23;20487;-77
2021/01/24 16:47:48;;;;;;;5.28;4.40;;;4.40;99.90;;;;;;6038683;23;20499;-78
2021/01/24 16:50:14;;;;;;;5.27;4.50;;;4.40;99.90;;;;;;6032365;23;20165;-78
2021/01/24 16:52:40;;;;;;;6.07;3.85;;;4.30;99.90;;;;;;6030211;23;20146;-78
2021/01/24 16:55:06;;;;;;;6.37;4.37;;;4.30;99.90;;;;;;6007272;23;20216;-77
2021/01/24 16:57:32;;;;;;;4.15;3.75;;;4.30;99.90;;;;;;6032297;23;20665;-77
2021/01/24 16:59:58;;;;;;;6.00;4.88;;;4.30;99.90;;;;;;6032517;23;20767;-78
2021/01/24 17:02:24;;;;;;;7.10;4.90;;;4.20;99.90;;;;;;6007702;23;20231;-78
2021/01/24 17:04:50;;;;;;;7.40;5.53;;;4.20;99.90;;;;;;6030890;23;20589;-77
2021/01/24 17:07:16;;;;;;;4.80;3.63;;;4.20;99.90;;;;;;6030565;23;20532;-77
2021/01/24 17:09:42;;;;;;;3.33;2.95;;;4.20;99.90;;;;;;6007143;23;20668;-78
2021/01/24 17:12:09;;;;;;;5.45;3.65;;;4.20;99.90;;;;;;6031449;23;20176;-78
2021/01/24 17:14:35;;;;;;;4.97;4.40;;;4.10;99.90;;;;;;6030990;23;20145;-78
2021/01/24 17:17:01;;;;;;;4.30;3.75;;;4.10;99.90;;;;;;6029945;23;20187;-77
2021/01/24 17:19:28;;;;;;;4.00;3.58;;;4.10;99.90;;;;;;6006452;23;20169;-79
2021/01/24 17:21:54;;;;;;;3.60;2.90;;;4.00;99.90;;;;;;6029722;23;20153;-76
2021/01/24 17:24:20;;;;;;;5.70;4.17;;;4.00;99.90;;;;;;6007127;23;20161;-79
2021/01/24 17:26:46;;;;;;;6.20;5.60;;;4.00;99.90;;;;;;6031330;23;20696;-78
2021/01/24 17:29:12;;;;;;;6.60;5.30;;;3.90;99.90;;;;;;6031022;23;20684;-77
2021/01/24 17:31:39;;;;;;;6.35;4.20;;;3.90;99.90;;;;;;6032288;23;20177;-78
2021/01/24 17:34:05;;;;;;;5.83;5.23;;;3.90;99.90;;;;;;6031698;23;20683;-78
2021/01/24 17:36:31;;;;;;;6.20;4.80;;;3.80;99.90;;;;;;6032180;23;20515;-78
2021/01/24 17:38:57;;;;;;;5.35;4.70;;;3.90;99.90;;;;;;6030206;23;20487;-78
2021/01/24 17:41:23;;;;;;;6.50;4.82;;;3.90;99.90;;;;;;5984399;23;20230;-79
2021/01/24 17:43:49;;;;;;;6.82;3.80;;;3.90;99.90;;;;;;6018585;23;20317;-78
2021/01/24 17:46:15;;;;;;;6.63;5.30;;;3.90;99.90;;;;;;6032393;23;21206;-77
2021/01/24 17:48:43;;;;;;;6.70;4.30;;;3.80;99.90;;;;;;6029708;23;20177;-78
2021/01/24 17:51:11;;;;;;;6.15;3.90;;;3.90;99.90;;;;;;6031194;23;20581;-78
2021/01/24 17:53:39;;;;;;;7.70;5.18;;;3.90;99.90;;;;;;6032260;23;20149;-78
2021/01/24 17:56:06;;;;;;;5.82;4.72;;;3.90;99.90;;;;;;6030648;23;20479;-79
2021/01/24 17:58:31;;;;;;;7.45;5.30;;;3.90;99.90;;;;;;5983275;23;20173;-79
2021/01/24 18:00:58;;;;;;;5.27;4.70;;;3.90;99.90;;;;;;6032079;23;20188;-79
2021/01/24 18:03:24;;;;;;;4.75;3.95;;;3.80;99.90;;;;;;6037842;23;20158;-79
2021/01/24 18:05:50;;;;;;;5.40;3.87;;;3.90;99.90;;;;;;6031358;23;20203;-80
2021/01/24 18:08:16;;;;;;;4.38;3.40;;;3.80;99.90;;;;;;6031127;23;21003;-80
2021/01/24 18:10:43;;;;;;;3.10;2.90;;;3.80;99.90;;;;;;6031776;23;20510;-78
2021/01/24 18:13:09;;;;;;;4.80;4.30;;;3.80;99.90;;;;;;6006993;23;20700;-78
2021/01/24 18:19:53;;;;;;;4.88;3.20;;;3.80;99.90;;;;;;6002523;23;20182;-77
2021/01/24 18:22:19;;;;;;;5.80;3.30;;;3.80;99.90;;;;;;6025926;23;20151;-78
2021/01/24 18:24:44;;;;;;;5.67;3.73;;;3.80;99.90;;;;;;6031134;23;20482;-78
2021/01/24 18:27:11;;;;;;;6.30;3.03;;;3.80;99.90;;;;;;6029599;23;20178;-78
2021/01/24 18:29:38;;;;;;;6.40;3.30;;;3.80;99.90;;;;;;6028553;23;20576;-78
2021/01/24 18:32:05;;;;;;;4.93;2.63;;;3.80;99.90;;;;;;6029564;23;20204;-78
2021/01/24 18:34:31;;;;;;;3.63;2.65;;;3.80;99.90;;;;;;6006971;23;20165;-77
2021/01/24 18:36:57;;;;;;;4.60;3.10;;;3.80;99.90;;;;;;6032383;23;20639;-78
2021/01/24 18:39:23;;;;;;;3.50;3.20;;;3.80;99.90;;;;;;6030683;23;20169;-78
2021/01/24 18:41:49;;;;;;;5.25;3.60;;;3.80;99.90;;;;;;5983800;23;20160;-78
2021/01/24 18:44:18;;;;;;;4.37;3.60;;;3.80;99.90;;;;;;6032087;23;20169;-79
2021/01/24 18:46:47;;;;;;;2.80;2.55;;;3.70;99.90;;;;;;6108802;23;20542;-80
2021/01/24 18:49:16;;;;;;;6.82;4.82;;;3.70;99.90;;;;;;6156438;23;20775;-78
2021/01/24 18:51:44;;;;;;;5.37;4.00;;;3.60;99.90;;;;;;6184571;23;20296;-79
2021/01/24 18:54:10;;;;;;;4.88;3.67;;;3.70;99.90;;;;;;6157885;23;20557;-78
2021/01/24 18:56:36;;;;;;;4.03;3.20;;;3.70;99.90;;;;;;6134369;23;20188;-78
2021/01/24 18:59:02;;;;;;;5.47;3.90;;;3.70;99.90;;;;;;6157930;23;20200;-78
2021/01/24 19:01:33;;;;;;;4.15;2.58;;;3.70;99.90;;;;;;6135022;23;20177;-78
2021/01/24 19:04:03;;;;;;;3.55;2.95;;;3.70;99.90;;;;;;6133915;23;20157;-78
2021/01/24 19:06:34;;;;;;;3.13;2.72;;;3.70;99.90;;;;;;6158974;23;20236;-78
2021/01/24 19:09:03;;;;;;;3.50;2.83;;;3.70;99.90;;;;;;6132994;23;20224;-78
2021/01/24 19:11:32;;;;;;;3.10;2.60;;;3.80;99.90;;;;;;6182621;23;20174;-78
2021/01/24 23:19:34;;;;;;;4.88;4.30;;;4.00;99.90;;;;;;6056090;23;20220;-79
2021/01/24 23:22:00;;;;;;;5.22;4.72;;;3.90;99.90;;;;;;6148310;23;20154;-79
2021/01/24 23:24:26;;;;;;;5.30;4.63;;;3.90;99.90;;;;;;6125151;23;20616;-79
2021/01/24 23:26:52;;;;;;;4.00;3.70;;;3.90;99.90;;;;;;6151493;23;20158;-79
2021/01/24 23:29:18;;;;;;;6.25;5.68;;;3.90;99.90;;;;;;6151180;23;20162;-79
2021/01/24 23:31:44;;;;;;;8.45;5.18;;;3.90;99.90;;;;;;6125526;23;20565;-79